Time;durP1;ratioP1;P1;durP2;ratioP2;P2;SDS_P1;SDS_P2;PMS_P1;PMS_P2;Temp;Humidity;BMP_temperature;BMP_pressure;BME280_temperature;BME280_humidity;BME280_pressure;Samples;Min_cycle;Max_cycle;Signal;HPM_P1;HPM_P2
2024/01/11 12:09:00;;;;;;;0.38;0.38;;;;;;;-3.46;100.00;96822.38;1040591;27;20171;-70
2024/01/11 12:09:34;;;;;;;1.42;1.42;;;;;;;-3.38;100.00;96826.81;1035842;28;20069;-71
2024/01/11 12:10:05;;;;;;;2.95;2.33;;;;;;;-3.22;100.00;96829.50;1033917;28;20256;-71
2024/01/11 12:10:35;;;;;;;2.85;1.08;;;;;;;-3.16;100.00;96831.44;1030129;28;20097;-72
2024/01/11 12:11:06;;;;;;;14.88;6.15;;;;;;;-3.18;100.00;96825.66;1033284;28;20026;-71
2024/01/11 12:11:36;;;;;;;1.38;1.38;;;;;;;-3.14;100.00;96831.31;1030388;28;20037;-71
2024/01/11 12:12:07;;;;;;;6.40;5.90;;;;;;;-3.21;100.00;96828.53;1029986;28;20022;-71
2024/01/11 12:12:40;;;;;;;4.35;3.90;;;;;;;-3.25;100.00;96834.94;1026673;28;20018;-72
2024/01/11 12:13:11;;;;;;;2.90;1.92;;;;;;;-3.21;100.00;96832.88;1026296;28;20790;-72
2024/01/11 12:13:44;;;;;;;12.52;6.60;;;;;;;-3.15;100.00;96825.38;1029447;28;20231;-72
2024/01/11 12:14:14;;;;;;;7.18;6.45;;;;;;;-3.05;100.00;96819.31;1027860;28;20078;-71
2024/01/11 12:14:48;;;;;;;8.00;7.03;;;;;;;-3.15;100.00;96812.53;1033654;28;20273;-72
2024/01/11 12:15:19;;;;;;;1.48;1.45;;;;;;;-3.16;100.00;96810.91;1026723;28;20301;-73
2024/01/11 12:15:50;;;;;;;6.60;4.13;;;;;;;-3.24;100.00;96802.38;1027500;28;20333;-71
2024/01/11 12:16:20;;;;;;;8.35;6.50;;;;;;;-3.27;100.00;96800.91;1026473;28;20027;-72
2024/01/11 12:17:00;;;;;;;5.45;4.22;;;;;;;-3.22;100.00;96795.31;1026321;28;20193;-72
2024/01/11 12:17:30;;;;;;;6.68;4.93;;;;;;;-3.24;100.00;96799.78;1030052;28;20027;-71
2024/01/11 12:18:01;;;;;;;2.65;2.45;;;;;;;-3.26;100.00;96807.63;1031056;28;20274;-72
2024/01/11 12:18:31;;;;;;;4.25;3.95;;;;;;;-3.34;100.00;96807.59;1034526;28;20037;-70
2024/01/11 12:19:02;;;;;;;2.30;2.15;;;;;;;-3.31;100.00;96802.16;1037494;28;20041;-71
2024/01/11 12:19:32;;;;;;;4.13;3.00;;;;;;;-3.16;100.00;96821.19;1029965;28;20027;-70
2024/01/11 12:20:03;;;;;;;6.47;4.75;;;;;;;-3.24;100.00;96813.44;1033857;28;20264;-71
2024/01/11 12:20:34;;;;;;;3.92;3.42;;;;;;;-3.10;100.00;96820.56;1032389;28;20030;-73
2024/01/11 12:21:04;;;;;;;2.33;2.17;;;;;;;-3.28;100.00;96817.25;1028576;28;20015;-71
2024/01/11 12:21:35;;;;;;;2.88;2.67;;;;;;;-3.26;100.00;96817.91;1029888;28;20030;-71
2024/01/11 12:22:05;;;;;;;2.53;2.40;;;;;;;-3.16;100.00;96821.19;1038228;28;20046;-72
2024/01/11 12:22:36;;;;;;;8.05;3.97;;;;;;;-3.16;100.00;96822.94;1026071;28;20053;-72
2024/01/11 12:23:06;;;;;;;5.90;5.35;;;;;;;-3.03;100.00;96812.28;1037476;28;20021;-72
2024/01/11 12:23:38;;;;;;;4.68;4.22;;;;;;;-2.97;100.00;96821.94;1030232;28;20120;-72
2024/01/11 12:24:09;;;;;;;2.53;2.33;;;;;;;-3.00;100.00;96814.56;1033753;28;20030;-72
2024/01/11 12:24:39;;;;;;;3.92;3.58;;;;;;;-3.09;100.00;96811.91;1029929;28;20258;-72
2024/01/11 12:25:10;;;;;;;6.47;4.38;;;;;;;-3.02;100.00;96816.44;1025887;28;20486;-72
2024/01/11 12:25:41;;;;;;;2.08;1.85;;;;;;;-2.90;100.00;96810.91;1030236;28;20019;-72
2024/01/11 12:26:12;;;;;;;8.23;7.32;;;;;;;-3.09;100.00;96817.03;1036033;28;20037;-71
2024/01/11 12:26:43;;;;;;;9.35;4.68;;;;;;;-3.06;100.00;96815.94;1029883;28;20022;-72
2024/01/11 12:27:19;;;;;;;4.97;2.60;;;;;;;-3.08;100.00;96803.28;1025923;28;20294;-72
2024/01/11 12:27:49;;;;;;;3.67;3.47;;;;;;;-3.19;100.00;96810.41;1029569;28;20057;-71
2024/01/11 12:28:20;;;;;;;4.05;3.65;;;;;;;-3.13;100.00;96815.75;1026637;28;20270;-71
2024/01/11 12:28:51;;;;;;;7.63;4.40;;;;;;;-3.22;100.00;96803.84;1025954;28;20057;-71
2024/01/11 12:29:21;;;;;;;3.63;2.47;;;;;;;-3.26;100.00;96805.06;1021897;29;20455;-72
2024/01/11 12:29:52;;;;;;;3.97;2.45;;;;;;;-3.19;100.00;96818.09;1028571;28;20373;-71
2024/01/11 12:30:23;;;;;;;7.00;4.03;;;;;;;-3.04;100.00;96816.63;1022042;29;20035;-70
2024/01/11 12:30:54;;;;;;;9.57;6.30;;;;;;;-3.13;100.00;96815.75;1021924;29;20267;-71
2024/01/11 12:31:24;;;;;;;20.90;2.25;;;;;;;-3.21;100.00;96823.41;1025951;28;20267;-71
2024/01/11 12:31:56;;;;;;;4.10;3.75;;;;;;;-3.48;100.00;96818.38;1026389;28;20042;-71
2024/01/11 12:32:26;;;;;;;5.03;4.63;;;;;;;-3.46;100.00;96824.16;1025874;28;20502;-72
2024/01/11 12:32:57;;;;;;;8.30;3.20;;;;;;;-3.94;100.00;96786.88;1021899;28;20306;-72
2024/01/11 12:33:28;;;;;;;2.20;2.10;;;;;;;-3.81;100.00;96823.22;1025744;28;20026;-72
2024/01/11 12:33:58;;;;;;;2.10;2.00;;;;;;;-4.06;100.00;96786.25;1030096;28;20033;-72
2024/01/11 12:34:29;;;;;;;4.18;3.63;;;;;;;-3.82;100.00;96829.31;1025992;28;20030;-71
2024/01/11 12:34:59;;;;;;;5.90;5.22;;;;;;;-3.78;100.00;96822.91;1025779;28;20034;-71
2024/01/11 12:35:33;;;;;;;5.60;5.18;;;;;;;-3.75;100.00;96825.19;1022080;28;20039;-71
2024/01/11 12:36:04;;;;;;;3.65;3.42;;;;;;;-3.70;100.00;96822.19;1025986;28;20019;-71
2024/01/11 12:36:35;;;;;;;4.22;3.78;;;;;;;-3.87;100.00;96822.03;1023755;28;20275;-71
2024/01/11 12:37:05;;;;;;;9.30;3.78;;;;;;;-3.92;100.00;96793.47;1026112;28;20776;-71
2024/01/11 12:37:36;;;;;;;13.93;4.30;;;;;;;-3.83;100.00;96819.97;1025742;28;20030;-72
2024/01/11 12:38:06;;;;;;;5.13;4.70;;;;;;;-3.80;100.00;96822.25;1025203;28;20027;-71
2024/01/11 12:38:37;;;;;;;4.45;3.90;;;;;;;-3.73;100.00;96817.34;1029721;28;20062;-71
2024/01/11 12:39:10;;;;;;;3.45;2.45;;;;;;;-3.71;100.00;96816.25;1033945;28;20149;-71
2024/01/11 12:39:40;;;;;;;4.15;3.17;;;;;;;-3.65;100.00;96804.63;1038083;28;20660;-71
2024/01/11 12:40:12;;;;;;;2.97;2.40;;;;;;;-3.66;100.00;96808.91;1025824;28;20365;-71
2024/01/11 12:40:43;;;;;;;5.07;4.60;;;;;;;-3.71;100.00;96818.00;1033926;28;20018;-71
2024/01/11 12:41:14;;;;;;;2.20;2.05;;;;;;;-3.93;100.00;96809.78;1025991;28;20267;-71
2024/01/11 12:41:44;;;;;;;4.32;3.88;;;;;;;-3.83;100.00;96813.09;1037884;28;20483;-71
2024/01/11 12:42:15;;;;;;;7.32;5.72;;;;;;;-3.87;100.00;96813.53;1026070;28;20501;-72
2024/01/11 12:42:45;;;;;;;9.02;3.10;;;;;;;-3.89;100.00;96806.00;1029951;28;20057;-72
2024/01/11 12:43:16;;;;;;;7.43;5.85;;;;;;;-3.85;100.00;96819.34;1026079;28;20087;-71
2024/01/11 12:43:46;;;;;;;8.05;5.38;;;;;;;-4.01;100.00;96804.59;1026803;28;20057;-72
2024/01/11 12:44:19;;;;;;;5.95;2.83;;;;;;;-3.94;100.00;96807.38;1025990;28;20049;-71
2024/01/11 12:44:50;;;;;;;7.43;3.10;;;;;;;-3.98;100.00;96799.19;1029184;28;20351;-70
2024/01/11 12:45:21;;;;;;;2.25;2.15;;;;;;;-3.82;100.00;96803.66;1021870;28;20267;-72
2024/01/11 12:45:51;;;;;;;7.32;5.43;;;;;;;-3.89;100.00;96802.59;1025853;28;20825;-72
2024/01/11 12:46:22;;;;;;;7.00;4.30;;;;;;;-3.95;100.00;96808.34;1031587;28;20069;-71
2024/01/11 12:46:53;;;;;;;5.60;4.72;;;;;;;-3.92;100.00;96813.19;1032696;28;20034;-71
2024/01/11 12:47:23;;;;;;;5.38;4.97;;;;;;;-3.89;100.00;96815.41;1022342;28;20026;-71
2024/01/11 12:47:56;;;;;;;6.13;2.65;;;;;;;-3.85;100.00;96819.34;1032402;28;20118;-71
2024/01/11 12:48:26;;;;;;;7.25;4.47;;;;;;;-3.74;100.00;96813.19;1029514;28;20018;-71
2024/01/11 12:48:57;;;;;;;4.28;3.95;;;;;;;-3.83;100.00;96822.53;1029356;28;20289;-70
2024/01/11 12:49:27;;;;;;;4.68;3.83;;;;;;;-3.77;100.00;96816.84;1030179;28;20117;-71
2024/01/11 12:49:58;;;;;;;4.93;2.75;;;;;;;-3.72;100.00;96817.22;1034136;28;20560;-71
2024/01/11 12:50:32;;;;;;;7.82;4.28;;;;;;;-3.77;100.00;96819.41;1032486;28;20438;-71
2024/01/11 12:51:02;;;;;;;2.30;2.10;;;;;;;-3.99;100.00;96817.25;1024428;28;20019;-69
2024/01/11 12:51:36;;;;;;;5.55;4.65;;;;;;;-3.77;100.00;96813.47;1033874;28;20273;-72
2024/01/11 12:52:06;;;;;;;6.93;5.30;;;;;;;-3.71;100.00;96811.13;1036154;28;20644;-72
2024/01/11 12:52:37;;;;;;;3.63;3.33;;;;;;;-3.81;100.00;96816.31;1038556;28;20275;-71
2024/01/11 12:53:18;;;;;;;10.15;5.40;;;;;;;-3.84;100.00;96810.69;1037627;28;20025;-71
2024/01/11 12:53:48;;;;;;;6.68;5.28;;;;;;;-4.02;100.00;96813.25;1036618;28;20032;-71
2024/01/11 12:54:19;;;;;;;1.30;1.30;;;;;;;-4.17;100.00;96819.78;1029522;28;20273;-72
2024/01/11 12:54:52;;;;;;;6.80;3.03;;;;;;;-4.05;100.00;96809.19;1031121;28;20173;-71
2024/01/11 12:55:24;;;;;;;5.00;4.60;;;;;;;-3.86;100.00;96820.25;1029772;28;20505;-71
2024/01/11 12:56:11;;;;;;;4.07;2.05;;;;;;;-3.74;100.00;96813.19;1033997;28;20278;-71
2024/01/11 12:56:42;;;;;;;3.65;3.35;;;;;;;-3.70;100.00;96815.28;1025898;28;20306;-71
2024/01/11 12:57:17;;;;;;;7.03;4.50;;;;;;;-3.59;100.00;96815.09;1032708;28;20268;-72
2024/01/11 12:57:48;;;;;;;1.90;1.80;;;;;;;-3.49;100.00;96816.75;1029363;28;20846;-71
2024/01/11 12:58:22;;;;;;;2.00;1.90;;;;;;;-3.60;100.00;96808.31;1033364;28;20270;-72
2024/01/11 12:59:05;;;;;;;5.85;2.80;;;;;;;-3.52;100.00;96817.88;1025860;28;20020;-72
2024/01/11 12:59:36;;;;;;;8.30;5.03;;;;;;;-3.68;100.00;96808.28;1032622;28;20315;-71
2024/01/11 13:00:13;;;;;;;5.93;3.85;;;;;;;-3.49;100.00;96821.88;1029902;28;20313;-71
2024/01/11 13:00:44;;;;;;;7.57;3.70;;;;;;;-3.54;100.00;96814.63;1021816;28;20027;-71
2024/01/11 13:01:14;;;;;;;4.88;4.35;;;;;;;-3.47;100.00;96814.84;1029784;28;20266;-72
2024/01/11 13:01:45;;;;;;;6.65;4.80;;;;;;;-3.42;100.00;96812.63;1026407;28;20478;-70
2024/01/11 13:02:16;;;;;;;6.13;3.65;;;;;;;-3.43;100.00;96806.69;1040897;28;20489;-71
2024/01/11 13:02:49;;;;;;;7.10;4.95;;;;;;;-3.44;100.00;96812.00;1023630;28;20683;-71
2024/01/11 13:03:20;;;;;;;6.03;4.32;;;;;;;-3.43;100.00;96823.84;1028118;28;20071;-72
2024/01/11 13:03:54;;;;;;;3.83;3.58;;;;;;;-3.49;100.00;96811.63;1029096;28;20265;-71
2024/01/11 13:04:24;;;;;;;6.05;4.55;;;;;;;-3.47;100.00;96812.28;1032845;28;20301;-71
2024/01/11 13:04:55;;;;;;;8.60;4.13;;;;;;;-3.58;100.00;96813.31;1032051;28;20093;-71
2024/01/11 13:05:26;;;;;;;5.22;4.88;;;;;;;-3.48;100.00;96814.06;1033023;28;20108;-71
2024/01/11 13:05:57;;;;;;;3.90;3.58;;;;;;;-3.40;100.00;96815.88;1030227;28;20792;-72
2024/01/11 13:06:27;;;;;;;5.95;5.10;;;;;;;-3.46;100.00;96813.88;1033705;28;20529;-72
2024/01/11 13:07:00;;;;;;;8.40;4.68;;;;;;;-3.38;100.00;96814.78;1025951;28;20118;-72
2024/01/11 13:07:30;;;;;;;5.22;4.80;;;;;;;-3.29;100.00;96814.81;1029569;28;20015;-71
2024/01/11 13:08:10;;;;;;;3.38;2.97;;;;;;;-3.42;100.00;96803.19;1026052;28;20824;-71
2024/01/11 13:08:41;;;;;;;8.25;5.45;;;;;;;-3.32;100.00;96811.63;1025313;28;20056;-72
2024/01/11 13:09:17;;;;;;;4.53;4.15;;;;;;;-3.35;100.00;96811.91;1028843;28;20839;-72
2024/01/11 13:09:48;;;;;;;8.65;4.50;;;;;;;-3.32;100.00;96809.06;1025175;28;20634;-72
2024/01/11 13:10:18;;;;;;;5.43;2.67;;;;;;;-3.29;100.00;96804.56;1025507;28;20274;-72
2024/01/11 13:10:49;;;;;;;4.22;3.83;;;;;;;-3.36;100.00;96801.78;1032346;28;20506;-71
2024/01/11 13:11:21;;;;;;;2.75;2.55;;;;;;;-3.37;100.00;96797.63;1029595;28;20131;-72
2024/01/11 13:11:51;;;;;;;4.10;3.75;;;;;;;-3.37;100.00;96800.19;1025493;28;20087;-71
2024/01/11 13:12:22;;;;;;;5.03;4.18;;;;;;;-3.36;100.00;96810.28;1033730;28;20266;-72
2024/01/11 13:12:53;;;;;;;4.53;4.15;;;;;;;-3.38;100.00;96801.16;1037568;28;20041;-72
2024/01/11 13:13:24;;;;;;;5.35;4.07;;;;;;;-3.48;100.00;96803.00;1025541;28;20265;-71
2024/01/11 13:13:55;;;;;;;5.53;4.55;;;;;;;-3.45;100.00;96805.25;1030014;28;20113;-72
2024/01/11 13:14:25;;;;;;;2.67;2.25;;;;;;;-3.34;100.00;96805.81;1033727;28;20265;-71
2024/01/11 13:14:56;;;;;;;5.05;3.38;;;;;;;-3.17;100.00;96806.75;1025182;28;20070;-72
2024/01/11 13:15:26;;;;;;;1.95;1.85;;;;;;;-3.16;100.00;96810.09;1029491;28;20486;-72
2024/01/11 13:15:58;;;;;;;5.47;5.03;;;;;;;-3.24;100.00;96812.63;1027980;28;20022;-71
2024/01/11 13:16:28;;;;;;;5.72;3.38;;;;;;;-3.10;100.00;96809.50;1031356;28;20033;-71
2024/01/11 13:16:59;;;;;;;4.90;4.50;;;;;;;-3.10;100.00;96818.00;1028715;28;20360;-72
2024/01/11 13:17:30;;;;;;;5.07;4.65;;;;;;;-3.04;100.00;96813.25;1028998;28;20026;-71
2024/01/11 13:18:00;;;;;;;6.30;5.03;;;;;;;-2.97;100.00;96816.81;1033036;28;20672;-71
2024/01/11 13:18:32;;;;;;;4.15;3.45;;;;;;;-2.83;100.00;96810.31;1021396;28;20020;-72
2024/01/11 13:19:02;;;;;;;11.27;6.43;;;;;;;-2.89;100.00;96811.72;1033378;28;20018;-70
2024/01/11 13:19:35;;;;;;;7.82;6.30;;;;;;;-3.14;100.00;96809.00;1028757;28;20631;-72
2024/01/11 13:20:07;;;;;;;13.15;6.82;;;;;;;-3.05;100.00;96811.63;1026162;28;20054;-71
2024/01/11 13:20:37;;;;;;;5.30;4.10;;;;;;;-3.06;100.00;96800.53;1022729;29;20274;-71
2024/01/11 13:21:09;;;;;;;8.07;5.38;;;;;;;-3.03;100.00;96809.72;1026170;28;20282;-71
2024/01/11 13:21:39;;;;;;;5.20;4.80;;;;;;;-2.92;100.00;96805.16;1027927;28;20030;-71
2024/01/11 13:22:10;;;;;;;6.55;4.78;;;;;;;-2.91;100.00;96799.06;1023189;29;20814;-71
2024/01/11 13:22:41;;;;;;;3.30;3.00;;;;;;;-2.88;100.00;96796.19;1019055;29;20087;-71
2024/01/11 13:23:21;;;;;;;5.32;4.10;;;;;;;-2.69;100.00;96802.03;1021686;29;20043;-71
2024/01/11 13:23:51;;;;;;;5.65;5.18;;;;;;;-2.75;100.00;96802.66;1027213;28;20159;-71
2024/01/11 13:24:22;;;;;;;13.70;8.18;;;;;;;-2.75;100.00;96803.47;1026874;28;20035;-71
2024/01/11 13:24:52;;;;;;;4.47;3.70;;;;;;;-2.75;100.00;96798.34;1031332;28;20525;-71
2024/01/11 13:25:23;;;;;;;4.53;4.22;;;;;;;-2.61;100.00;96805.47;1018982;28;20028;-72
2024/01/11 13:25:53;;;;;;;10.63;6.22;;;;;;;-2.35;100.00;96825.16;1027175;28;20564;-69
2024/01/11 13:26:24;;;;;;;6.60;6.05;;;;;;;-2.25;100.00;96815.56;1018300;29;20119;-71
2024/01/11 13:26:55;;;;;;;4.32;3.97;;;;;;;-2.25;100.00;96819.91;1026291;28;20026;-71
2024/01/11 13:27:25;;;;;;;4.60;3.70;;;;;;;-2.44;100.00;96815.81;1022374;28;20395;-71
2024/01/11 13:27:56;;;;;;;6.03;3.85;;;;;;;-2.63;100.00;96817.66;1015022;29;20016;-72
2024/01/11 13:28:27;;;;;;;7.50;3.13;;;;;;;-2.80;100.00;96794.63;1021967;28;20490;-71
2024/01/11 13:28:57;;;;;;;7.35;5.22;;;;;;;-2.67;100.00;96808.66;1023115;28;20074;-73
2024/01/11 13:29:27;;;;;;;7.80;5.50;;;;;;;-2.59;100.00;96807.06;1026996;28;20015;-72
2024/01/11 13:29:58;;;;;;;2.72;2.53;;;;;;;-2.55;100.00;96813.50;1030262;28;20519;-72
2024/01/11 13:30:32;;;;;;;4.68;4.00;;;;;;;-2.79;100.00;96812.41;1022556;28;20057;-71
2024/01/11 13:31:08;;;;;;;16.90;8.63;;;;;;;-2.73;100.00;96795.59;1027225;28;20026;-70
2024/01/11 13:31:39;;;;;;;4.80;3.60;;;;;;;-2.52;100.00;96819.13;1027121;28;20274;-70
2024/01/11 13:32:10;;;;;;;5.72;5.20;;;;;;;-2.71;100.00;96806.53;1026979;28;20259;-69
2024/01/11 13:32:41;;;;;;;8.05;4.07;;;;;;;-2.62;100.00;96815.88;1024314;28;20051;-70
2024/01/11 13:33:11;;;;;;;4.35;3.92;;;;;;;-2.63;100.00;96815.09;1027848;28;20270;-71
2024/01/11 13:33:42;;;;;;;6.78;4.07;;;;;;;-2.75;100.00;96813.75;1031077;28;20019;-72
2024/01/11 13:34:12;;;;;;;3.20;2.78;;;;;;;-2.96;100.00;96821.00;1031866;28;20033;-71
2024/01/11 13:34:43;;;;;;;3.40;3.00;;;;;;;-2.93;100.00;96818.13;1037402;28;20018;-71
2024/01/11 13:35:14;;;;;;;7.90;4.53;;;;;;;-2.91;100.00;96824.72;1030980;28;20050;-70
2024/01/11 13:35:45;;;;;;;7.25;4.40;;;;;;;-2.92;100.00;96832.56;1031515;28;20265;-71
2024/01/11 13:36:15;;;;;;;4.30;3.72;;;;;;;-3.16;100.00;96818.59;1038133;28;20118;-72
2024/01/11 13:36:46;;;;;;;5.60;4.75;;;;;;;-2.99;100.00;96827.22;1034506;28;20013;-71
2024/01/11 13:37:16;;;;;;;3.83;2.92;;;;;;;-2.88;100.00;96833.91;1031199;28;20022;-70
2024/01/11 13:37:46;;;;;;;4.72;3.67;;;;;;;-2.82;100.00;96827.31;1030550;28;20025;-71
2024/01/11 13:38:17;;;;;;;3.63;3.33;;;;;;;-2.78;100.00;96823.50;1031357;28;20018;-70
2024/01/11 13:38:49;;;;;;;4.20;3.90;;;;;;;-2.69;100.00;96832.88;1027182;28;20030;-71
2024/01/11 13:39:20;;;;;;;4.95;4.50;;;;;;;-2.65;100.00;96829.84;1031351;28;20374;-71
2024/01/11 13:39:50;;;;;;;5.55;4.93;;;;;;;-2.66;100.00;96824.84;1035543;28;20320;-71
2024/01/11 13:40:21;;;;;;;5.47;4.15;;;;;;;-2.66;100.00;96828.22;1031765;28;20018;-72
2024/01/11 13:40:52;;;;;;;4.22;2.75;;;;;;;-2.58;100.00;96832.63;1031490;28;20493;-71
2024/01/11 13:41:22;;;;;;;5.38;2.88;;;;;;;-2.56;100.00;96824.75;1030900;28;20054;-71
2024/01/11 13:41:53;;;;;;;3.22;3.03;;;;;;;-2.59;100.00;96823.28;1030627;28;20363;-73
2024/01/11 13:42:23;;;;;;;11.18;4.68;;;;;;;-2.89;100.00;96801.44;1032007;28;20045;-72
2024/01/11 13:42:57;;;;;;;4.28;2.38;;;;;;;-2.88;100.00;96832.13;1039549;28;20021;-70
2024/01/11 13:43:28;;;;;;;5.00;4.13;;;;;;;-2.98;100.00;96833.19;1039438;28;20020;-71
2024/01/11 13:43:58;;;;;;;5.45;3.97;;;;;;;-2.87;100.00;96827.78;1039477;28;20658;-71
2024/01/11 13:44:29;;;;;;;6.78;4.47;;;;;;;-2.93;100.00;96836.09;1039337;28;20017;-71
2024/01/11 13:45:00;;;;;;;8.30;5.50;;;;;;;-3.17;100.00;96809.31;1038731;28;20456;-72
2024/01/11 13:45:30;;;;;;;8.02;5.93;;;;;;;-3.27;100.00;96823.19;1039162;28;20022;-71
2024/01/11 13:46:04;;;;;;;3.78;3.47;;;;;;;-3.16;100.00;96831.44;1035168;28;20792;-72
2024/01/11 13:46:35;;;;;;;5.30;3.33;;;;;;;-3.21;100.00;96831.09;1031586;28;20018;-72
2024/01/11 13:47:05;;;;;;;3.78;3.13;;;;;;;-3.41;100.00;96801.44;1025447;28;20317;-72
2024/01/11 13:47:36;;;;;;;5.20;4.25;;;;;;;-3.39;100.00;96820.03;1021274;28;20035;-73
2024/01/11 13:48:06;;;;;;;3.00;2.47;;;;;;;-3.48;100.00;96826.06;1023969;28;20097;-71
2024/01/11 13:48:37;;;;;;;2.85;2.63;;;;;;;-3.49;100.00;96832.94;1020211;29;20035;-72
2024/01/11 13:49:07;;;;;;;5.60;4.55;;;;;;;-3.45;100.00;96825.78;1023176;29;20027;-72
2024/01/11 13:49:38;;;;;;;3.38;2.53;;;;;;;-3.34;100.00;96833.25;1031075;28;20046;-71
2024/01/11 13:50:09;;;;;;;5.78;4.55;;;;;;;-3.31;100.00;96827.81;1030910;28;20548;-72
2024/01/11 13:50:39;;;;;;;2.92;2.67;;;;;;;-3.40;100.00;96816.66;1027679;28;20055;-73
2024/01/11 13:51:12;;;;;;;3.30;3.03;;;;;;;-3.36;100.00;96835.13;1025490;28;20015;-72
2024/01/11 13:51:47;;;;;;;3.85;3.50;;;;;;;-3.38;100.00;96830.16;1031028;28;20022;-72
2024/01/11 13:52:17;;;;;;;4.53;3.97;;;;;;;-3.34;100.00;96833.25;1031098;28;20278;-71
2024/01/11 13:52:48;;;;;;;4.63;4.20;;;;;;;-3.41;100.00;96827.91;1033090;28;20364;-73
2024/01/11 13:53:18;;;;;;;9.95;4.78;;;;;;;-3.32;100.00;96828.75;1036115;28;20017;-71
2024/01/11 13:53:49;;;;;;;3.60;3.30;;;;;;;-3.23;100.00;96835.56;1034998;28;20026;-72
2024/01/11 13:54:21;;;;;;;6.88;4.65;;;;;;;-3.21;100.00;96838.00;1031003;28;20014;-71
2024/01/11 13:54:52;;;;;;;3.83;3.47;;;;;;;-3.22;100.00;96836.38;1027453;28;20019;-71
2024/01/11 13:55:22;;;;;;;13.10;7.93;;;;;;;-3.25;100.00;96831.53;1030799;28;20756;-69
2024/01/11 13:55:53;;;;;;;7.32;3.83;;;;;;;-3.20;100.00;96834.47;1023916;28;20035;-70
2024/01/11 13:56:23;;;;;;;7.72;4.10;;;;;;;-3.16;100.00;96828.06;1023133;28;20030;-71
2024/01/11 13:56:54;;;;;;;8.98;5.22;;;;;;;-3.04;100.00;96823.53;1026926;28;20060;-72
2024/01/11 13:57:24;;;;;;;4.70;4.30;;;;;;;-2.91;100.00;96840.13;1031188;28;20458;-72
2024/01/11 13:57:54;;;;;;;5.18;4.78;;;;;;;-2.96;100.00;96838.97;1034371;28;20073;-71
2024/01/11 13:58:28;;;;;;;4.65;1.85;;;;;;;-2.99;100.00;96844.41;1030746;28;20019;-73
2024/01/11 13:59:01;;;;;;;5.13;4.70;;;;;;;-2.93;100.00;96847.16;1023537;28;20422;-71
2024/01/11 13:59:32;;;;;;;4.60;3.70;;;;;;;-2.88;100.00;96850.09;1026836;28;21277;-71
2024/01/11 14:00:04;;;;;;;4.53;4.22;;;;;;;-3.13;100.00;96841.41;1029030;28;20029;-71
2024/01/11 14:00:35;;;;;;;6.28;3.35;;;;;;;-3.00;100.00;96845.34;1039746;28;20264;-71
2024/01/11 14:01:05;;;;;;;3.65;3.33;;;;;;;-2.92;100.00;96842.84;1041175;28;20255;-72
2024/01/11 14:01:38;;;;;;;6.43;3.80;;;;;;;-2.85;100.00;96846.41;1037088;28;20022;-71
2024/01/11 14:02:12;;;;;;;4.07;2.75;;;;;;;-2.87;100.00;96850.91;1034989;28;20102;-72
2024/01/11 14:02:42;;;;;;;6.13;4.85;;;;;;;-3.00;100.00;96840.22;1031023;28;20296;-71
2024/01/11 14:03:13;;;;;;;3.05;2.58;;;;;;;-3.14;100.00;96844.94;1027597;28;20085;-69
2024/01/11 14:03:43;;;;;;;8.73;3.78;;;;;;;-3.17;100.00;96832.41;1031300;28;20413;-71
2024/01/11 14:04:14;;;;;;;6.80;6.20;;;;;;;-3.12;100.00;96843.03;1035181;28;20819;-72
2024/01/11 14:04:45;;;;;;;5.05;4.53;;;;;;;-3.05;100.00;96832.16;1035067;28;20026;-71
2024/01/11 14:05:17;;;;;;;9.75;4.60;;;;;;;-2.99;100.00;96831.56;1029813;28;20028;-72
2024/01/11 14:05:47;;;;;;;7.15;4.25;;;;;;;-2.93;100.00;96833.53;1023121;29;20518;-71
2024/01/11 14:06:18;;;;;;;6.25;4.00;;;;;;;-2.95;100.00;96823.41;1025456;28;20270;-72
2024/01/11 14:06:50;;;;;;;4.93;3.90;;;;;;;-2.85;100.00;96833.56;1027266;28;20019;-71
2024/01/11 14:07:20;;;;;;;7.15;3.28;;;;;;;-2.94;100.00;96819.88;1030774;28;20113;-71
2024/01/11 14:07:57;;;;;;;5.72;3.97;;;;;;;-3.00;100.00;96815.34;1022220;28;20262;-70
2024/01/11 14:08:28;;;;;;;7.05;5.22;;;;;;;-2.99;100.00;96826.44;1019368;28;20020;-71
2024/01/11 14:08:58;;;;;;;3.40;2.60;;;;;;;-3.15;100.00;96825.38;1025045;28;20686;-72
2024/01/11 14:09:29;;;;;;;7.00;5.32;;;;;;;-3.21;100.00;96813.13;1026488;28;20114;-71
2024/01/11 14:10:00;;;;;;;8.90;6.35;;;;;;;-3.15;100.00;96822.81;1027721;28;20034;-71
2024/01/11 14:10:30;;;;;;;7.30;6.40;;;;;;;-3.18;100.00;96819.75;1030676;28;20281;-68
2024/01/11 14:11:01;;;;;;;7.53;5.20;;;;;;;-3.11;100.00;96826.69;1026717;28;20190;-70
2024/01/11 14:11:31;;;;;;;4.82;4.45;;;;;;;-3.19;100.00;96818.91;1018993;28;20020;-72
2024/01/11 14:12:02;;;;;;;6.90;3.28;;;;;;;-3.22;100.00;96826.94;1025634;28;20062;-70
2024/01/11 14:12:33;;;;;;;4.18;3.88;;;;;;;-3.22;100.00;96832.06;1022917;28;20019;-69
2024/01/11 14:13:03;;;;;;;7.65;6.97;;;;;;;-3.18;100.00;96827.44;1029303;28;20057;-72
2024/01/11 14:13:34;;;;;;;4.82;3.47;;;;;;;-3.23;100.00;96832.19;1042553;28;20024;-72
2024/01/11 14:14:04;;;;;;;5.88;3.80;;;;;;;-3.27;100.00;96834.25;1039367;28;20014;-72
2024/01/11 14:14:35;;;;;;;2.20;2.08;;;;;;;-3.25;100.00;96832.34;1039091;28;20284;-71
2024/01/11 14:15:06;;;;;;;3.15;2.78;;;;;;;-3.19;100.00;96842.00;1039045;28;20017;-71
2024/01/11 14:15:37;;;;;;;8.30;6.03;;;;;;;-3.23;100.00;96840.69;1034427;28;20025;-71
2024/01/11 14:16:07;;;;;;;3.88;3.28;;;;;;;-3.24;100.00;96841.66;1030751;28;20583;-71
2024/01/11 14:16:38;;;;;;;6.18;4.80;;;;;;;-3.37;100.00;96833.53;1023075;28;20538;-71
2024/01/11 14:17:09;;;;;;;5.40;3.38;;;;;;;-3.33;100.00;96834.84;1022864;28;20022;-71
2024/01/11 14:17:39;;;;;;;10.43;4.10;;;;;;;-3.37;100.00;96838.66;1022772;28;20050;-72
2024/01/11 14:18:10;;;;;;;4.22;3.83;;;;;;;-3.38;100.00;96837.06;1018081;29;20282;-72
2024/01/11 14:18:40;;;;;;;4.00;3.58;;;;;;;-3.39;100.00;96833.66;1018753;29;20024;-70
2024/01/11 14:19:11;;;;;;;4.30;3.92;;;;;;;-3.42;100.00;96840.84;1023255;28;20019;-71
2024/01/11 14:19:41;;;;;;;4.60;3.55;;;;;;;-3.48;100.00;96839.72;1019836;28;20051;-72
2024/01/11 14:20:13;;;;;;;6.35;4.85;;;;;;;-3.49;100.00;96839.84;1032892;28;20049;-71
2024/01/11 14:20:46;;;;;;;5.30;4.90;;;;;;;-3.50;100.00;96838.22;1031171;28;20026;-72
2024/01/11 14:21:17;;;;;;;6.65;5.35;;;;;;;-3.48;100.00;96846.59;1031215;28;20266;-71
2024/01/11 14:21:47;;;;;;;5.15;4.18;;;;;;;-3.59;100.00;96843.31;1031673;28;20591;-70
2024/01/11 14:22:18;;;;;;;6.70;6.03;;;;;;;-3.51;100.00;96857.16;1031463;28;20030;-71
2024/01/11 14:22:50;;;;;;;8.30;5.55;;;;;;;-3.54;100.00;96844.63;1030596;28;20022;-71
2024/01/11 14:23:20;;;;;;;5.18;4.72;;;;;;;-3.43;100.00;96854.66;1026329;28;20015;-72
2024/01/11 14:23:51;;;;;;;10.23;6.40;;;;;;;-3.47;100.00;96843.06;1023114;28;20321;-71
2024/01/11 14:24:22;;;;;;;15.07;3.35;;;;;;;-3.41;100.00;96856.13;1026615;28;20023;-72
2024/01/11 14:24:52;;;;;;;5.97;4.07;;;;;;;-3.49;100.00;96850.91;1026930;28;20859;-70
2024/01/11 14:25:24;;;;;;;6.85;4.88;;;;;;;-3.45;100.00;96861.69;1026609;28;20027;-71
2024/01/11 14:25:56;;;;;;;4.15;2.80;;;;;;;-3.43;100.00;96859.78;1023033;28;20093;-70
2024/01/11 14:26:27;;;;;;;4.35;4.05;;;;;;;-3.52;100.00;96860.66;1022691;29;20267;-70
2024/01/11 14:26:57;;;;;;;3.95;3.55;;;;;;;-3.57;100.00;96864.47;1020800;28;20271;-71
2024/01/11 14:27:28;;;;;;;2.63;2.53;;;;;;;-3.56;100.00;96866.06;1023446;28;20023;-71
2024/01/11 14:27:59;;;;;;;2.60;2.03;;;;;;;-3.60;100.00;96864.75;1021419;28;20027;-72
2024/01/11 14:28:30;;;;;;;9.18;4.95;;;;;;;-3.67;100.00;96863.72;1027141;28;20030;-70
2024/01/11 14:29:01;;;;;;;8.68;3.45;;;;;;;-3.66;100.00;96864.53;1026850;28;20769;-71
2024/01/11 14:29:31;;;;;;;4.38;3.42;;;;;;;-3.69;100.00;96863.09;1027093;28;20579;-71
2024/01/11 14:30:05;;;;;;;4.82;3.85;;;;;;;-3.67;100.00;96868.06;1030734;28;20288;-70
2024/01/11 14:30:35;;;;;;;5.93;4.13;;;;;;;-3.68;100.00;96872.38;1031278;28;20022;-71
2024/01/11 14:31:06;;;;;;;5.68;3.38;;;;;;;-3.65;100.00;96877.22;1035360;28;20617;-70
2024/01/11 14:31:37;;;;;;;3.10;2.67;;;;;;;-3.70;100.00;96876.84;1035153;28;20026;-72
2024/01/11 14:32:07;;;;;;;5.90;2.95;;;;;;;-3.70;100.00;96884.53;1034427;28;20030;-70
2024/01/11 14:32:38;;;;;;;3.40;2.95;;;;;;;-3.80;100.00;96879.47;1034733;28;20264;-71
2024/01/11 14:33:08;;;;;;;7.32;5.20;;;;;;;-3.78;100.00;96884.47;1027031;28;20019;-72
2024/01/11 14:33:39;;;;;;;6.15;4.03;;;;;;;-3.74;100.00;96888.34;1030627;28;20494;-71
2024/01/11 14:34:10;;;;;;;7.13;3.92;;;;;;;-3.88;100.00;96883.72;1031207;28;20022;-71